createdAt,value
2023-05-22T00:03:05.767Z,99956.84
2023-05-22T00:08:11.796Z,99957.16
2023-05-22T00:13:13.635Z,99956.59
2023-05-22T00:18:15.326Z,99953.06
2023-05-22T00:23:17.296Z,99955.59
2023-05-22T00:28:19.188Z,99955.53
2023-05-22T00:33:20.991Z,99948.75
2023-05-22T00:38:34.255Z,99948.06
2023-05-22T00:43:36.224Z,99946.84
2023-05-22T00:48:38.226Z,99941.81
2023-05-22T00:53:40.599Z,99942.16
2023-05-22T00:58:42.790Z,99944.72
2023-05-22T01:03:45.964Z,99931.94
2023-05-22T01:08:48.107Z,99933.28
2023-05-22T01:14:14.717Z,99937.34
2023-05-22T01:19:47.555Z,99938.50
2023-05-22T01:25:18.907Z,99937.56
2023-05-22T01:30:47.936Z,99948.69
2023-05-22T01:35:56.079Z,99945.41
2023-05-22T01:40:58.411Z,99955.44
2023-05-22T01:46:01.882Z,99952.47
2023-05-22T01:51:12.028Z,99946.88
2023-05-22T01:56:18.193Z,99952.16
2023-05-22T02:01:21.733Z,99956.97
2023-05-22T02:06:26.110Z,99953.53
2023-05-22T02:11:30.567Z,99950.78
2023-05-22T02:16:32.370Z,99952.53
2023-05-22T02:21:35.418Z,99937.84
2023-05-22T02:26:37.752Z,99946.06
2023-05-22T02:31:39.665Z,99945.94
2023-05-22T02:36:41.378Z,99938.41
2023-05-22T02:41:43.261Z,99938.38
2023-05-22T02:46:45.787Z,99936.44
2023-05-22T02:51:47.851Z,99931.25
2023-05-22T02:56:49.843Z,99927.59
2023-05-22T03:01:51.628Z,99925.88
2023-05-22T03:06:53.402Z,99923.50
2023-05-22T03:11:55.343Z,99919.56
2023-05-22T03:16:58.930Z,99923.88
2023-05-22T03:22:01.173Z,99924.03
2023-05-22T03:27:04.480Z,99912.50
2023-05-22T03:32:13.889Z,99903.47
2023-05-22T03:37:15.639Z,99909.94
2023-05-22T03:42:17.393Z,99908.31
2023-05-22T03:47:19.900Z,99904.31
2023-05-22T03:52:22.137Z,99898.88
2023-05-22T03:57:23.870Z,99903.66
2023-05-22T04:02:26.415Z,99900.72
2023-05-22T04:07:32.676Z,99911.25
2023-05-22T04:12:34.517Z,99909.59
2023-05-22T04:17:41.506Z,99909.06
2023-05-22T04:22:45.891Z,99910.41
2023-05-22T04:27:50.758Z,99906.44
2023-05-22T04:32:52.503Z,99906.19
2023-05-22T04:37:54.257Z,99910.88
2023-05-22T04:42:59.748Z,99912.53
2023-05-22T04:48:02.603Z,99900.38
2023-05-22T04:53:08.075Z,99915.59
2023-05-22T04:58:10.355Z,99920.47
2023-05-22T05:03:12.319Z,99915.16
2023-05-22T05:08:14.272Z,99905.75
2023-05-22T05:13:16.037Z,99908.56
2023-05-22T05:18:20.890Z,99905.97
2023-05-22T05:23:23.160Z,99912.88
2023-05-22T05:28:26.247Z,99908.72
2023-05-22T05:33:29.517Z,99911.22
2023-05-22T05:38:39.594Z,99917.84
2023-05-22T05:43:42.088Z,99916.34
2023-05-22T05:48:45.346Z,99918.34
2023-05-22T05:53:47.620Z,99919.59
2023-05-22T05:58:49.732Z,99917.81
2023-05-22T06:04:09.008Z,99913.16
2023-05-22T06:09:12.769Z,99913.75
2023-05-22T06:14:33.436Z,99908.84
2023-05-22T06:19:35.756Z,99908.34
2023-05-22T06:24:37.746Z,99914.38
2023-05-22T06:29:46.151Z,99909.44
2023-05-22T06:34:49.654Z,99909.69
2023-05-22T06:39:54.622Z,99906.78
2023-05-22T06:45:19.953Z,99897.88
2023-05-22T06:50:42.068Z,99897.72
2023-05-22T06:55:43.839Z,99903.41
2023-05-22T07:00:52.052Z,99900.59
2023-05-22T07:05:59.622Z,99900.50
2023-05-22T07:11:02.216Z,99904.31
2023-05-22T07:16:04.535Z,99903.47
2023-05-22T07:21:06.849Z,99895.59
2023-05-22T07:26:09.831Z,99897.94
2023-05-22T07:31:17.357Z,99884.97
2023-05-22T07:36:21.089Z,99881.50
2023-05-22T07:41:24.196Z,99877.50
2023-05-22T07:46:26.196Z,99878.25
2023-05-22T07:51:44.919Z,99880.38
2023-05-22T07:56:47.746Z,99875.13
2023-05-22T08:01:51.907Z,99866.06
2023-05-22T08:06:53.674Z,99869.44
2023-05-22T08:11:55.363Z,99865.53
2023-05-22T08:16:59.082Z,99865.94
2023-05-22T08:22:01.117Z,99862.78
2023-05-22T08:27:04.838Z,99861.63
2023-05-22T08:32:06.878Z,99860.59
2023-05-22T08:37:09.476Z,99850.84
2023-05-22T08:42:11.240Z,99858.47
2023-05-22T08:47:14.123Z,99859.47
2023-05-22T08:52:41.460Z,99856.25
2023-05-22T08:57:43.340Z,99844.25
2023-05-22T09:02:46.633Z,99839.88
2023-05-22T09:07:49.035Z,99839.41
2023-05-22T09:13:08.992Z,99834.56
2023-05-22T09:18:14.336Z,99828.69
2023-05-22T09:23:18.011Z,99830.88
2023-05-22T09:28:20.517Z,99820.00
2023-05-22T09:33:23.263Z,99824.22
2023-05-22T09:38:29.881Z,99826.47
2023-05-22T09:43:33.728Z,99823.09
2023-05-22T09:48:38.409Z,99817.41
2023-05-22T09:53:43.291Z,99822.81
2023-05-22T09:58:46.806Z,99814.38
2023-05-22T10:03:52.914Z,99814.72
2023-05-22T10:09:01.815Z,99809.81
2023-05-22T10:14:05.125Z,99806.72
2023-05-22T10:19:08.345Z,99807.00
2023-05-22T10:24:10.272Z,99804.63
2023-05-22T10:29:15.624Z,99800.28
2023-05-22T10:34:54.103Z,99796.66
2023-05-22T10:40:08.969Z,99806.63
2023-05-22T10:45:11.064Z,99793.72
2023-05-22T10:50:13.165Z,99789.13
2023-05-22T10:55:14.952Z,99796.13
2023-05-22T11:00:18.742Z,99784.28
2023-05-22T11:05:25.888Z,99771.94
2023-05-22T11:10:47.859Z,99767.41
2023-05-22T11:15:49.630Z,99777.06
2023-05-22T11:20:53.972Z,99776.00
2023-05-22T11:25:55.697Z,99768.75
2023-05-22T11:30:57.680Z,99766.47
2023-05-22T11:36:01.971Z,99765.84
2023-05-22T11:41:03.719Z,99753.25
2023-05-22T11:46:10.495Z,99745.00
2023-05-22T11:51:12.651Z,99741.56
2023-05-22T11:56:14.534Z,99738.88
2023-05-22T12:01:16.460Z,99738.13
2023-05-22T12:06:18.703Z,99734.34
2023-05-22T12:11:21.651Z,99727.25
2023-05-22T12:16:23.865Z,99735.03
2023-05-22T12:21:27.130Z,99725.03
2023-05-22T12:26:28.824Z,99726.69
2023-05-22T12:31:37.565Z,99715.38
2023-05-22T12:36:41.170Z,99719.78
2023-05-22T12:41:43.943Z,99715.41
2023-05-22T12:46:46.316Z,99719.09
2023-05-22T12:51:55.861Z,99710.81
2023-05-22T12:56:57.976Z,99701.13
2023-05-22T13:02:04.198Z,99702.72
2023-05-22T13:07:06.191Z,99697.16
2023-05-22T13:12:10.310Z,99694.28
2023-05-22T13:17:12.420Z,99689.03
2023-05-22T13:22:15.652Z,99680.44
2023-05-22T13:27:18.874Z,99678.69
2023-05-22T13:32:21.115Z,99687.31
2023-05-22T13:37:23.404Z,99667.56
2023-05-22T13:42:25.442Z,99662.69
2023-05-22T13:47:27.444Z,99665.88
2023-05-22T13:52:29.406Z,99656.63
2023-05-22T13:57:31.504Z,99657.31
2023-05-22T14:02:33.388Z,99646.03
2023-05-22T14:07:36.193Z,99647.88
2023-05-22T14:12:38.002Z,99640.28
2023-05-22T14:17:40.068Z,99633.16
2023-05-22T14:22:56.067Z,99626.44
2023-05-22T14:27:59.728Z,99617.16
2023-05-22T14:33:01.608Z,99631.00
2023-05-22T14:38:03.373Z,99629.44
2023-05-22T14:43:05.160Z,99627.72
2023-05-22T14:48:10.191Z,99625.00
2023-05-22T14:53:13.078Z,99625.22
2023-05-22T14:58:14.975Z,99617.31
2023-05-22T15:03:19.026Z,99620.50
2023-05-22T15:08:21.155Z,99614.22
2023-05-22T15:13:22.899Z,99609.13
2023-05-22T15:18:26.524Z,99610.56
2023-05-22T15:23:28.615Z,99597.13
2023-05-22T15:28:30.461Z,99597.56
2023-05-22T15:33:34.013Z,99592.34
2023-05-22T15:38:35.779Z,99597.06
2023-05-22T15:43:38.089Z,99590.31
2023-05-22T15:48:39.938Z,99594.19
2023-05-22T15:53:44.495Z,99590.31
2023-05-22T15:58:46.205Z,99590.13
2023-05-22T16:03:48.026Z,99580.13
2023-05-22T16:08:50.067Z,99581.19
2023-05-22T16:13:51.853Z,99578.63
2023-05-22T16:18:53.699Z,99566.66
2023-05-22T16:23:55.708Z,99578.56
2023-05-22T16:28:57.514Z,99571.97
2023-05-22T16:33:59.233Z,99578.72
2023-05-22T16:39:01.014Z,99567.53
2023-05-22T16:44:03.084Z,99574.25
2023-05-22T16:49:04.880Z,99580.97
2023-05-22T16:54:06.642Z,99574.91
2023-05-22T16:59:08.434Z,99569.72
2023-05-22T17:04:14.382Z,99569.63
2023-05-22T17:09:16.217Z,99572.47
2023-05-22T17:14:17.934Z,99565.56
2023-05-22T17:19:20.129Z,99573.53
2023-05-22T17:24:22.025Z,99565.34
2023-05-22T17:29:24.797Z,99564.81
2023-05-22T17:34:28.250Z,99563.56
2023-05-22T17:39:30.594Z,99561.16
2023-05-22T17:44:32.375Z,99565.28
2023-05-22T17:49:34.087Z,99574.88
2023-05-22T17:54:35.884Z,99573.31
2023-05-22T17:59:39.987Z,99578.41
2023-05-22T18:04:42.220Z,99575.56
2023-05-22T18:09:43.967Z,99575.56
2023-05-22T18:14:46.778Z,99571.91
2023-05-22T18:19:48.734Z,99567.66
2023-05-22T18:24:50.676Z,99569.16
2023-05-22T18:29:52.422Z,99556.19
2023-05-22T18:34:54.418Z,99553.06
2023-05-22T18:39:56.321Z,99553.88
2023-05-22T18:44:58.814Z,99556.13
2023-05-22T18:50:00.929Z,99572.56
2023-05-22T18:55:02.813Z,99565.59
2023-05-22T19:00:05.053Z,99573.72
2023-05-22T19:05:07.475Z,99568.34
2023-05-22T19:10:09.755Z,99581.31
2023-05-22T19:15:11.708Z,99581.19
2023-05-22T19:20:13.413Z,99585.75
2023-05-22T19:25:15.168Z,99583.19
2023-05-22T19:30:18.835Z,99582.69
2023-05-22T19:35:20.760Z,99569.06
2023-05-22T19:40:22.450Z,99581.16
2023-05-22T19:45:25.981Z,99588.53
2023-05-22T19:50:27.704Z,99584.19
2023-05-22T19:55:30.580Z,99600.31
2023-05-22T20:00:33.465Z,99593.38
2023-05-22T20:05:35.177Z,99601.25
2023-05-22T20:10:36.928Z,99596.44
2023-05-22T20:15:41.099Z,99589.41
2023-05-22T20:20:42.951Z,99588.09
2023-05-22T20:25:44.760Z,99595.63
2023-05-22T20:30:46.594Z,99591.13
2023-05-22T20:35:48.862Z,99584.72
2023-05-22T20:40:52.231Z,99586.16
2023-05-22T20:45:54.180Z,99585.91
2023-05-22T20:50:56.020Z,99582.50
2023-05-22T20:55:58.026Z,99581.56
2023-05-22T21:00:59.914Z,99566.47
2023-05-22T21:06:01.745Z,99576.16
2023-05-22T21:11:03.484Z,99564.94
2023-05-22T21:16:05.717Z,99567.09
2023-05-22T21:21:07.411Z,99575.06
2023-05-22T21:26:09.352Z,99562.72
2023-05-22T21:31:11.385Z,99566.44
2023-05-22T21:36:13.020Z,99562.19
2023-05-22T21:41:15.898Z,99561.69
2023-05-22T21:46:17.730Z,99554.06
2023-05-22T21:51:20.032Z,99554.41
2023-05-22T21:56:21.948Z,99555.69
2023-05-22T22:01:23.737Z,99561.75
2023-05-22T22:06:25.461Z,99576.34
2023-05-22T22:11:27.500Z,99563.88
2023-05-22T22:16:29.219Z,99561.84
2023-05-22T22:21:35.283Z,99567.03
2023-05-22T22:26:36.967Z,99566.91
2023-05-22T22:31:38.780Z,99572.38
2023-05-22T22:36:40.499Z,99569.38
2023-05-22T22:41:43.558Z,99564.47
2023-05-22T22:46:45.799Z,99562.91
2023-05-22T22:51:50.189Z,99561.16
2023-05-22T22:56:52.117Z,99557.97
2023-05-22T23:01:54.031Z,99550.31
2023-05-22T23:06:57.560Z,99542.09
2023-05-22T23:11:59.332Z,99549.25
2023-05-22T23:17:02.713Z,99551.22
2023-05-22T23:22:06.234Z,99544.25
2023-05-22T23:27:07.910Z,99538.13
2023-05-22T23:32:10.057Z,99537.91
2023-05-22T23:37:12.633Z,99534.59
2023-05-22T23:42:15.535Z,99539.00
2023-05-22T23:47:18.688Z,99538.25
2023-05-22T23:52:20.507Z,99534.03
2023-05-22T23:57:22.213Z,99539.03
